Time;durP1;ratioP1;P1;durP2;ratioP2;P2;SDS_P1;SDS_P2;PMS_P1;PMS_P2;Temp;Humidity;BMP_temperature;BMP_pressure;BME280_temperature;BME280_humidity;BME280_pressure;Samples;Min_cycle;Max_cycle;Signal;HPM_P1;HPM_P2
2023/01/25 00:04:06;;;;;;;42.00;26.00;;;;;;;-0.03;100.00;101505.41;449584;1253;143832;-59
2023/01/25 00:14:13;;;;;;;43.30;30.20;;;;;;;-0.04;100.00;101485.27;450169;1251;142673;-59
2023/01/25 00:24:21;;;;;;;43.80;29.00;;;;;;;-0.04;100.00;101471.32;450166;1253;143039;-59
2023/01/25 00:34:50;;;;;;;53.80;33.00;;;;;;;-0.02;100.00;101483.56;448257;1251;143334;-59
2023/01/25 00:44:57;;;;;;;59.50;33.40;;;;;;;-0.03;100.00;101480.63;442005;1251;143129;-58
2023/01/25 00:55:03;;;;;;;47.20;29.20;;;;;;;-0.07;100.00;101477.30;433083;1255;144375;-61
2023/01/25 01:05:11;;;;;;;49.40;28.50;;;;;;;-0.12;100.00;101481.20;441490;1253;142508;-59
2023/01/25 01:15:18;;;;;;;44.10;25.60;;;;;;;-0.18;100.00;101474.77;437197;1251;143486;-60
2023/01/25 01:25:22;;;;;;;;;;;;;;;-0.19;100.00;101460.83;434491;1250;142245;-59
2023/01/25 01:35:30;;;;;;;37.60;24.00;;;;;;;-0.25;100.00;101450.27;434607;1255;128995;-59
2023/01/25 01:45:54;;;;;;;40.30;24.60;;;;;;;-0.29;100.00;101448.86;436003;1256;143680;-59
2023/01/25 01:56:03;;;;;;;38.70;23.30;;;;;;;-0.33;100.00;101445.88;439700;1251;143811;-58
2023/01/25 02:06:14;;;;;;;36.80;21.40;;;;;;;-0.38;100.00;101445.66;443662;1251;144026;-59
2023/01/25 02:16:25;;;;;;;27.80;17.40;;;;;;;-0.40;100.00;101436.86;449732;1251;144698;-60
2023/01/25 02:26:31;;;;;;;28.00;17.10;;;;;;;-0.41;100.00;101431.34;450518;1251;188712;-59
2023/01/25 02:36:38;;;;;;;13.70;9.30;;;;;;;-0.42;100.00;101418.59;449758;1250;143915;-59
2023/01/25 02:46:44;;;;;;;;;;;;;;;-0.46;100.00;101414.77;450490;1251;142829;-58
2023/01/25 02:56:52;;;;;;;17.90;11.10;;;;;;;-0.54;100.00;101415.53;450748;1251;130050;-60
2023/01/25 03:06:58;;;;;;;14.50;10.50;;;;;;;-0.60;100.00;101409.95;449763;1251;144311;-60
2023/01/25 03:17:04;;;;;;;12.80;8.10;;;;;;;-0.61;100.00;101392.92;450427;1251;143236;-60
2023/01/25 03:27:12;;;;;;;11.60;9.50;;;;;;;-0.62;100.00;101383.11;450356;1251;142286;-60
2023/01/25 03:37:18;;;;;;;14.00;9.30;;;;;;;-0.66;100.00;101378.06;449685;1251;146613;-61
2023/01/25 03:47:24;;;;;;;12.00;9.20;;;;;;;-0.65;100.00;101376.55;450397;1250;143470;-62
2023/01/25 03:57:30;;;;;;;12.70;9.00;;;;;;;-0.68;100.00;101362.58;449646;1251;144637;-60
2023/01/25 04:07:37;;;;;;;10.60;8.10;;;;;;;-0.75;100.00;101356.48;450395;1251;144378;-60
2023/01/25 04:17:43;;;;;;;13.60;8.80;;;;;;;-0.75;100.00;101350.63;450486;1250;146758;-61
2023/01/25 04:28:09;;;;;;;17.70;11.60;;;;;;;-0.75;100.00;101338.75;449711;1251;143013;-60
2023/01/25 04:38:19;;;;;;;13.80;10.50;;;;;;;-0.81;100.00;101339.20;450452;1251;143692;-60
2023/01/25 04:48:26;;;;;;;14.20;9.00;;;;;;;-0.99;100.00;101341.77;446134;1251;151602;-60
2023/01/25 04:58:31;;;;;;;13.50;9.70;;;;;;;-1.06;100.00;101346.15;450445;1251;143110;-60
2023/01/25 05:08:44;;;;;;;15.60;10.60;;;;;;;-1.05;100.00;101334.13;450377;1251;147103;-59
2023/01/25 05:18:49;;;;;;;16.90;10.30;;;;;;;-1.07;100.00;101327.22;449595;1251;143857;-60
2023/01/25 05:28:58;;;;;;;14.60;10.20;;;;;;;-1.05;100.00;101321.91;450403;1250;144995;-61
2023/01/25 05:39:07;;;;;;;11.70;8.70;;;;;;;-1.08;100.00;101301.77;450449;1250;143314;-59
2023/01/25 05:49:15;;;;;;;15.90;11.60;;;;;;;-1.10;100.00;101302.44;449687;1251;143120;-58
2023/01/25 05:59:22;;;;;;;15.30;10.90;;;;;;;-1.08;100.00;101293.34;450369;1250;144157;-59
2023/01/25 06:09:29;;;;;;;13.50;10.30;;;;;;;-1.09;100.00;101278.39;449491;1250;142893;-63
2023/01/25 06:19:34;;;;;;;;;;;;;;;-1.10;100.00;101269.27;450225;1251;143430;-61
2023/01/25 06:29:40;;;;;;;16.40;11.60;;;;;;;-1.10;100.00;101278.54;450388;1251;128319;-59
2023/01/25 06:39:45;;;;;;;;;;;;;;;-1.06;100.00;101295.61;449403;1251;161414;-59
2023/01/25 06:49:50;;;;;;;10.80;8.00;;;;;;;-0.99;100.00;101282.28;445673;1251;130281;-60
2023/01/25 07:00:18;;;;;;;6.80;5.80;;;;;;;-0.90;100.00;101272.56;449976;1251;143127;-60
2023/01/25 07:10:24;;;;;;;8.80;6.40;;;;;;;-0.85;100.00;101267.98;449569;1251;200126;-59
2023/01/25 07:20:34;;;;;;;5.90;5.10;;;;;;;-0.80;100.00;101261.67;450211;1251;143785;-60
2023/01/25 07:30:41;;;;;;;8.80;7.30;;;;;;;-0.74;100.00;101248.48;449390;1251;142899;-59
2023/01/25 07:40:56;;;;;;;6.00;4.80;;;;;;;-0.62;100.00;101237.07;450270;1251;145237;-60
2023/01/25 07:51:15;;;;;;;6.50;4.50;;;;;;;-0.44;100.00;101235.83;450243;1251;142874;-60
2023/01/25 08:01:23;;;;;;;6.50;5.60;;;;;;;-0.31;100.00;101236.98;449628;1251;200051;-59
2023/01/25 08:11:31;;;;;;;7.20;6.30;;;;;;;-0.17;100.00;101227.94;450149;1251;142924;-60
2023/01/25 08:21:37;;;;;;;7.40;5.90;;;;;;;-0.04;100.00;101205.81;449595;1251;143023;-60
2023/01/25 08:31:45;;;;;;;11.10;7.40;;;;;;;-0.09;100.00;101191.48;448174;1251;143816;-60
2023/01/25 08:41:52;;;;;;;12.80;8.80;;;;;;;-0.12;100.00;101180.98;450220;1251;142730;-61
2023/01/25 08:52:17;;;;;;;13.50;7.50;;;;;;;-0.06;100.00;101167.77;449512;1251;143297;-61
2023/01/25 09:02:26;;;;;;;12.00;8.20;;;;;;;-0.14;100.00;101152.05;450308;1251;143572;-60
2023/01/25 09:12:53;;;;;;;10.90;8.30;;;;;;;-0.19;100.00;101144.96;449530;1251;187154;-60
2023/01/25 09:23:18;;;;;;;;;;;;;;;-0.17;100.00;101160.30;450182;1251;142218;-61
2023/01/25 09:33:30;;;;;;;14.70;10.40;;;;;;;-0.25;100.00;101163.35;449755;1251;130384;-61
2023/01/25 09:44:12;;;;;;;15.10;9.00;;;;;;;-0.17;100.00;101156.69;450225;1250;143745;-62
2023/01/25 09:54:20;;;;;;;16.60;9.30;;;;;;;-0.09;100.00;101144.33;450204;1251;143969;-61
2023/01/25 10:04:51;;;;;;;16.20;11.90;;;;;;;-0.10;100.00;101132.96;449765;1251;208379;-61
2023/01/25 10:15:22;;;;;;;13.80;10.10;;;;;;;-0.17;100.00;101112.79;450255;1251;142523;-61
2023/01/25 10:25:35;;;;;;;12.80;8.90;;;;;;;-0.14;99.98;101104.71;449834;1251;198620;-62
2023/01/25 10:36:04;;;;;;;14.60;10.10;;;;;;;-0.08;100.00;101093.55;446615;1252;142126;-62
2023/01/25 10:46:30;;;;;;;10.30;8.50;;;;;;;-0.16;99.98;101080.25;449691;1252;212853;-62
2023/01/25 10:56:56;;;;;;;11.50;8.20;;;;;;;-0.13;99.99;101074.59;450275;1251;142875;-61
2023/01/25 11:07:29;;;;;;;9.50;6.50;;;;;;;-0.00;100.00;101064.64;449634;1251;142183;-61
2023/01/25 11:18:04;;;;;;;7.50;6.70;;;;;;;0.16;99.92;101039.03;450239;1251;143126;-61
2023/01/25 11:28:29;;;;;;;8.90;6.50;;;;;;;0.28;99.52;101023.73;449658;1251;199201;-61
2023/01/25 11:39:16;;;;;;;10.10;7.30;;;;;;;0.23;99.10;101011.32;450343;1251;142862;-62
2023/01/25 11:49:54;;;;;;;11.20;7.40;;;;;;;0.13;99.17;101000.63;448747;1252;143152;-61
2023/01/25 12:00:40;;;;;;;9.70;6.50;;;;;;;0.18;99.25;100987.54;450318;1251;142598;-61
2023/01/25 12:11:09;;;;;;;;;;;;;;;0.17;98.98;100967.56;446274;1251;336623;-61
2023/01/25 12:21:48;;;;;;;11.60;8.80;;;;;;;0.13;99.38;100948.63;438883;1251;129092;-63
2023/01/25 12:32:18;;;;;;;8.40;7.40;;;;;;;0.08;99.71;100931.05;450488;1251;143183;-62
2023/01/25 12:42:47;;;;;;;10.60;7.00;;;;;;;0.04;99.75;100913.14;449589;1251;142258;-62
2023/01/25 12:53:19;;;;;;;11.80;8.50;;;;;;;0.06;99.79;100896.95;450328;1251;143790;-62
2023/01/25 13:03:59;;;;;;;12.70;8.70;;;;;;;-0.07;99.53;100885.08;449588;1251;143680;-62
2023/01/25 13:14:41;;;;;;;12.00;8.50;;;;;;;-0.19;99.77;100876.62;450380;1251;144048;-62
2023/01/25 13:25:21;;;;;;;10.90;8.40;;;;;;;-0.23;99.96;100858.54;449613;1251;143658;-61
2023/01/25 13:35:46;;;;;;;10.70;8.00;;;;;;;-0.30;100.00;100849.59;450432;1251;142872;-61
2023/01/25 13:46:16;;;;;;;12.80;9.20;;;;;;;-0.30;100.00;100851.13;436148;1253;146045;-61
2023/01/25 13:56:41;;;;;;;11.30;8.00;;;;;;;-0.27;100.00;100832.22;447331;1252;143390;-61
2023/01/25 14:07:14;;;;;;;11.50;9.30;;;;;;;-0.25;100.00;100822.23;449585;1251;142742;-62
2023/01/25 14:17:40;;;;;;;13.90;10.00;;;;;;;-0.27;100.00;100822.06;450439;1252;143675;-62
2023/01/25 14:28:13;;;;;;;14.30;9.00;;;;;;;-0.33;100.00;100812.09;449569;1251;143434;-61
2023/01/25 14:38:40;;;;;;;13.90;9.30;;;;;;;-0.37;100.00;100804.33;450423;1252;143987;-61
2023/01/25 14:49:16;;;;;;;12.40;9.80;;;;;;;-0.36;100.00;100789.70;449615;1251;142489;-61
2023/01/25 14:59:44;;;;;;;13.90;10.20;;;;;;;-0.38;100.00;100771.11;450380;1251;142922;-62
2023/01/25 15:10:22;;;;;;;15.70;11.40;;;;;;;-0.42;100.00;100756.50;449721;1252;142254;-62
2023/01/25 15:20:49;;;;;;;19.50;12.50;;;;;;;-0.47;100.00;100743.93;450480;1251;143213;-62
2023/01/25 15:31:18;;;;;;;16.60;12.10;;;;;;;-0.51;100.00;100735.84;449439;1251;162764;-62
2023/01/25 15:41:44;;;;;;;20.90;12.90;;;;;;;-0.53;100.00;100721.05;450313;1250;144500;-62
2023/01/25 15:52:12;;;;;;;17.80;11.80;;;;;;;-0.56;100.00;100714.86;449585;1250;143359;-63
2023/01/25 16:02:38;;;;;;;19.80;12.80;;;;;;;-0.53;100.00;100707.98;450289;1251;143642;-62
2023/01/25 16:13:04;;;;;;;18.10;12.50;;;;;;;-0.52;100.00;100691.30;449390;1252;142497;-60
2023/01/25 16:23:29;;;;;;;19.00;14.50;;;;;;;-0.51;100.00;100676.51;449371;1252;152854;-61
2023/01/25 16:33:55;;;;;;;22.80;14.40;;;;;;;-0.54;100.00;100663.95;449101;1252;142127;-62
2023/01/25 16:44:21;;;;;;;22.10;14.30;;;;;;;-0.56;100.00;100656.73;447279;1252;144044;-61
2023/01/25 16:54:47;;;;;;;25.40;17.60;;;;;;;-0.57;100.00;100653.46;449345;1252;143560;-62
2023/01/25 17:05:13;;;;;;;30.30;17.60;;;;;;;-0.55;100.00;100650.54;450143;1255;143949;-61
2023/01/25 17:15:38;;;;;;;23.20;16.40;;;;;;;-0.59;100.00;100648.82;444538;1251;143752;-63
2023/01/25 17:26:06;;;;;;;29.20;18.90;;;;;;;-0.63;100.00;100622.67;450232;1255;144296;-61
2023/01/25 17:36:32;;;;;;;35.20;20.00;;;;;;;-0.63;100.00;100608.56;449485;1251;145896;-62
2023/01/25 17:46:58;;;;;;;33.50;19.60;;;;;;;-0.61;100.00;100593.27;450245;1251;145898;-61
2023/01/25 17:57:25;;;;;;;40.40;21.50;;;;;;;-0.57;100.00;100578.30;449676;1252;144601;-61
2023/01/25 18:07:50;;;;;;;35.30;25.50;;;;;;;-0.57;100.00;100576.05;450199;1253;147360;-60
2023/01/25 18:18:16;;;;;;;28.80;17.20;;;;;;;-0.54;100.00;100575.52;450161;1251;143229;-61
2023/01/25 18:28:42;;;;;;;38.80;23.10;;;;;;;-0.62;100.00;100570.23;449746;1251;198997;-61
2023/01/25 18:39:08;;;;;;;40.50;23.10;;;;;;;-0.65;100.00;100560.60;444587;1251;148561;-61
2023/01/25 18:49:34;;;;;;;34.60;20.00;;;;;;;-0.70;100.00;100546.67;449542;1251;209009;-62
2023/01/25 19:00:00;;;;;;;34.00;21.30;;;;;;;-0.70;100.00;100540.14;446260;1252;143918;-61
2023/01/25 19:10:26;;;;;;;34.70;20.90;;;;;;;-0.67;100.00;100524.14;432118;1256;196490;-61
2023/01/25 19:20:52;;;;;;;44.20;25.80;;;;;;;-0.68;100.00;100516.92;432946;1251;143652;-60
2023/01/25 19:31:20;;;;;;;37.30;21.80;;;;;;;-0.75;100.00;100517.63;432398;1257;146309;-59
2023/01/25 19:41:46;;;;;;;42.50;23.30;;;;;;;-0.81;100.00;100503.02;433388;1257;144187;-61
2023/01/25 19:52:12;;;;;;;41.50;28.00;;;;;;;-0.81;100.00;100488.77;448993;1251;144473;-59
2023/01/25 20:02:37;;;;;;;42.10;26.20;;;;;;;-0.79;100.00;100475.86;450088;1251;143486;-60
2023/01/25 20:13:03;;;;;;;46.20;27.90;;;;;;;-0.77;100.00;100466.22;449279;1252;144442;-62
2023/01/25 20:23:33;;;;;;;49.10;27.70;;;;;;;-0.82;100.00;100453.33;449923;1251;143578;-59
2023/01/25 20:34:00;;;;;;;54.30;33.20;;;;;;;-0.85;100.00;100443.55;449285;1251;143655;-61
2023/01/25 20:44:26;;;;;;;43.10;25.80;;;;;;;-0.90;100.00;100434.45;447107;1254;143811;-60
2023/01/25 20:54:34;;;;;;;42.70;25.80;;;;;;;-0.92;100.00;100427.41;449213;1251;186538;-60
2023/01/25 21:04:40;;;;;;;45.60;25.50;;;;;;;-0.88;100.00;100421.73;450036;1251;143441;-61
2023/01/25 21:14:47;;;;;;;37.60;22.60;;;;;;;-0.84;100.00;100415.19;449768;1251;142025;-59
2023/01/25 21:24:51;;;;;;;;;;;;;;;-0.79;100.00;100413.27;448521;1251;144420;-60
2023/01/25 21:34:57;;;;;;;45.60;23.20;;;;;;;-0.73;100.00;100404.48;450335;1251;130583;-61
2023/01/25 21:55:27;;;;;;;30.70;19.50;;;;;;;-0.88;100.00;100408.67;443219;1251;199203;-61
2023/01/25 22:05:34;;;;;;;48.70;26.60;;;;;;;-0.88;100.00;100402.30;449915;1251;143545;-61
2023/01/25 22:15:40;;;;;;;29.80;17.60;;;;;;;-0.86;100.00;100385.96;449291;1251;145285;-59
2023/01/25 22:25:47;;;;;;;27.50;17.10;;;;;;;-0.83;100.00;100378.04;450185;1251;143352;-59
2023/01/25 22:35:53;;;;;;;27.10;13.10;;;;;;;-0.81;100.00;100371.66;450055;1251;143119;-60
2023/01/25 22:45:59;;;;;;;25.30;14.50;;;;;;;-0.82;100.00;100364.97;449348;1251;144332;-60
2023/01/25 22:56:08;;;;;;;25.70;15.30;;;;;;;-0.75;100.00;100347.57;450166;1251;143535;-60
2023/01/25 23:06:16;;;;;;;25.10;16.50;;;;;;;-0.71;100.00;100336.89;450076;1251;142731;-62
2023/01/25 23:16:22;;;;;;;25.60;17.10;;;;;;;-0.66;100.00;100317.08;444483;1251;214850;-59
2023/01/25 23:26:29;;;;;;;29.10;19.60;;;;;;;-0.65;100.00;100299.02;437802;1251;143585;-59
2023/01/25 23:36:37;;;;;;;31.70;18.80;;;;;;;-0.65;100.00;100286.46;449485;1251;142613;-60
2023/01/25 23:46:43;;;;;;;29.30;17.30;;;;;;;-0.64;100.00;100280.27;450200;1251;142493;-59
2023/01/25 23:56:49;;;;;;;28.00;16.80;;;;;;;-0.65;100.00;100264.64;450226;1251;142683;-59
